Terminal Aerodrome Forecast
Issued by NWS Omaha/Valley, NE

Home | Current Version | Previous Version | Text Only | Print | Product List | Glossary On
Versions: 1 2 3 4 5 6 7 8 9 10 11 12 13 14 15 16 17
000
FTUS43 KOAX 171834 AAA
TAFOMA
TAF AMD
KOMA 171834Z 1719/1818 36007KT P6SM SCT015 BKN050
      TEMPO 1719/1721 BKN015
     FM172100 34005KT P6SM SCT030 BKN150
     FM180700 19004KT P6SM SCT250
     FM181500 20008KT P6SM FEW250=

USA.gov is the U.S. government's official web portal to all federal, state and local government web resources and services.